Terminal Aerodrome Forecast
Issued by NWS

Home | Current Version | Previous Version | Graphics & Text | Print | Product List | Glossary On
Versions: 1 2 3 4 5 6 7 8 9 10 11 12 13 14 15
000
FTUS45 KGGW 291900 AAA
TAFSDY
TAF AMD
KSDY 291920Z 2919/3018 VRB05KT P6SM FEW015
     FM300000 VRB06KT P6SM FEW120 SCT150
      AMD LTD TO CLD VIS AND WIND=

USA.gov is the U.S. government's official web portal to all federal, state and local government web resources and services.